Time;durP1;ratioP1;P1;durP2;ratioP2;P2;SDS_P1;SDS_P2;PMS_P1;PMS_P2;Temp;Humidity;BMP_temperature;BMP_pressure;BME280_temperature;BME280_humidity;BME280_pressure;Samples;Min_cycle;Max_cycle;Signal;HPM_P1;HPM_P2
2023/09/22 00:01:39;;;;;;;15.75;8.52;;;;;;;;;;4995476;28;20643;-67
2023/09/22 00:04:05;;;;;;;16.90;8.65;;;;;;;;;;5000174;28;20198;-67
2023/09/22 00:06:30;;;;;;;13.88;7.78;;;;;;;;;;4994704;28;20215;-67
2023/09/22 00:08:56;;;;;;;11.73;7.18;;;;;;;;;;4998882;28;20194;-66
2023/09/22 00:11:22;;;;;;;13.20;6.63;;;;;;;;;;5039492;23;20234;-71
2023/09/22 00:13:47;;;;;;;12.52;6.30;;;;;;;;;;5019700;28;20772;-71
2023/09/22 00:16:12;;;;;;;10.20;5.65;;;;;;;;;;5031047;28;20281;-72
2023/09/22 00:18:37;;;;;;;9.07;6.00;;;;;;;;;;5027325;28;20211;-71
2023/09/22 00:21:04;;;;;;;10.13;6.55;;;;;;;;;;5015057;28;20588;-71
2023/09/22 00:23:29;;;;;;;14.52;8.23;;;;;;;;;;5008927;28;20686;-72
2023/09/22 00:25:55;;;;;;;12.15;7.07;;;;;;;;;;5012380;28;20174;-71
2023/09/22 00:28:20;;;;;;;12.18;7.63;;;;;;;;;;5011090;28;20175;-71
2023/09/22 00:30:46;;;;;;;15.13;9.32;;;;;;;;;;5001576;28;20309;-71
2023/09/22 00:33:11;;;;;;;20.35;9.93;;;;;;;;;;5011335;28;20174;-71
2023/09/22 00:35:36;;;;;;;25.50;9.93;;;;;;;;;;5008650;28;20700;-72
2023/09/22 00:38:01;;;;;;;16.10;9.77;;;;;;;;;;5007821;28;20203;-72
2023/09/22 00:40:27;;;;;;;18.08;10.07;;;;;;;;;;5011941;28;20232;-71
2023/09/22 00:43:04;;;;;;;24.60;12.07;;;;;;;;;;5006529;28;20186;-71
2023/09/22 00:45:30;;;;;;;21.35;11.90;;;;;;;;;;5007373;28;20524;-71
2023/09/22 00:47:55;;;;;;;29.27;13.68;;;;;;;;;;5012436;28;20175;-71
2023/09/22 00:50:20;;;;;;;23.33;13.70;;;;;;;;;;5012217;28;20218;-72
2023/09/22 00:52:45;;;;;;;28.90;15.75;;;;;;;;;;5009474;28;20194;-72
2023/09/22 00:55:11;;;;;;;29.52;16.80;;;;;;;;;;5012159;28;20179;-71
2023/09/22 00:57:36;;;;;;;33.05;18.08;;;;;;;;;;5012206;28;20578;-72
2023/09/22 01:00:01;;;;;;;31.55;17.00;;;;;;;;;;5012263;28;20190;-72
2023/09/22 01:02:29;;;;;;;27.88;16.98;;;;;;;;;;5008856;28;20207;-71
2023/09/22 01:04:54;;;;;;;34.17;18.38;;;;;;;;;;5008342;28;20565;-71
2023/09/22 01:07:19;;;;;;;29.70;16.67;;;;;;;;;;5009627;28;20229;-71
2023/09/22 01:09:45;;;;;;;33.00;16.58;;;;;;;;;;5010494;28;20222;-72
2023/09/22 01:12:10;;;;;;;32.50;16.65;;;;;;;;;;5010635;28;20178;-71
2023/09/22 01:14:35;;;;;;;32.03;17.42;;;;;;;;;;5012402;28;20168;-71
2023/09/22 01:17:00;;;;;;;30.33;16.17;;;;;;;;;;5005058;28;20185;-73
2023/09/22 01:19:26;;;;;;;35.47;18.85;;;;;;;;;;5008794;28;20665;-71
2023/09/22 01:21:51;;;;;;;37.65;18.25;;;;;;;;;;5008964;28;20616;-70
2023/09/22 01:24:16;;;;;;;33.67;17.95;;;;;;;;;;5013089;28;20230;-72
2023/09/22 01:26:42;;;;;;;40.35;18.13;;;;;;;;;;5013667;28;20175;-71
2023/09/22 01:29:07;;;;;;;34.45;18.17;;;;;;;;;;5007993;28;20179;-71
2023/09/22 01:31:33;;;;;;;34.47;17.95;;;;;;;;;;5009519;28;20198;-71
2023/09/22 01:33:59;;;;;;;35.08;18.25;;;;;;;;;;5008810;28;20179;-71
2023/09/22 01:36:25;;;;;;;36.05;17.30;;;;;;;;;;5008069;28;20186;-71
2023/09/22 01:38:50;;;;;;;40.13;18.35;;;;;;;;;;5014703;28;20207;-71
2023/09/22 01:41:15;;;;;;;39.40;19.23;;;;;;;;;;5021169;28;20613;-72
2023/09/22 01:43:41;;;;;;;37.75;17.88;;;;;;;;;;5018655;28;20701;-71
2023/09/22 01:46:06;;;;;;;39.05;16.63;;;;;;;;;;5015996;28;20183;-71
2023/09/22 01:48:32;;;;;;;35.88;18.20;;;;;;;;;;5020624;28;20684;-71
2023/09/22 01:51:02;;;;;;;38.40;17.63;;;;;;;;;;5019502;28;20622;-71
2023/09/22 01:53:27;;;;;;;36.97;16.90;;;;;;;;;;5013391;28;20209;-71
2023/09/22 01:55:53;;;;;;;32.72;15.35;;;;;;;;;;5016903;28;20270;-71
2023/09/22 01:58:19;;;;;;;34.20;16.70;;;;;;;;;;5010108;28;20580;-72
2023/09/22 02:00:45;;;;;;;32.58;15.52;;;;;;;;;;5016758;28;20487;-72
2023/09/22 02:03:10;;;;;;;32.38;15.05;;;;;;;;;;5020946;28;20281;-72
2023/09/22 02:05:35;;;;;;;37.38;15.85;;;;;;;;;;5011133;28;20233;-72
2023/09/22 02:08:01;;;;;;;29.63;15.65;;;;;;;;;;5016709;28;20185;-72
2023/09/22 02:10:26;;;;;;;31.05;15.68;;;;;;;;;;5019950;28;20207;-72
2023/09/22 02:12:51;;;;;;;32.10;15.70;;;;;;;;;;5017474;28;20179;-72
2023/09/22 02:15:16;;;;;;;29.40;14.07;;;;;;;;;;5009810;28;20184;-72
2023/09/22 02:17:42;;;;;;;34.88;15.25;;;;;;;;;;5010904;28;20199;-72
2023/09/22 02:20:22;;;;;;;30.10;14.65;;;;;;;;;;5018765;28;20213;-72
2023/09/22 02:22:48;;;;;;;31.42;13.65;;;;;;;;;;5017858;28;20190;-71
2023/09/22 02:25:14;;;;;;;27.40;14.15;;;;;;;;;;5017006;28;20171;-72
2023/09/22 02:27:39;;;;;;;32.50;15.32;;;;;;;;;;5008223;28;20186;-72
2023/09/22 02:30:05;;;;;;;28.83;14.68;;;;;;;;;;5017988;28;20194;-72
2023/09/22 02:32:30;;;;;;;31.08;14.13;;;;;;;;;;5017679;28;20194;-71
2023/09/22 02:34:57;;;;;;;27.88;13.27;;;;;;;;;;5014041;28;20183;-71
2023/09/22 02:37:23;;;;;;;28.90;13.68;;;;;;;;;;5013883;28;20297;-71
2023/09/22 02:39:48;;;;;;;32.60;13.38;;;;;;;;;;5018614;28;20294;-71
2023/09/22 02:42:14;;;;;;;23.35;12.77;;;;;;;;;;5019759;28;20273;-71
2023/09/22 02:44:39;;;;;;;28.05;13.10;;;;;;;;;;5014686;28;20199;-72
2023/09/22 02:47:05;;;;;;;29.80;13.82;;;;;;;;;;5011943;28;20185;-72
2023/09/22 02:49:30;;;;;;;32.33;13.50;;;;;;;;;;5018836;28;20657;-72
2023/09/22 02:51:56;;;;;;;25.20;11.93;;;;;;;;;;5011661;28;20178;-71
2023/09/22 02:54:22;;;;;;;28.13;12.95;;;;;;;;;;5013345;28;20240;-71
2023/09/22 02:56:47;;;;;;;27.60;12.07;;;;;;;;;;5014693;28;20178;-71
2023/09/22 02:59:14;;;;;;;22.52;12.05;;;;;;;;;;5017681;28;20227;-71
2023/09/22 03:01:39;;;;;;;30.40;12.60;;;;;;;;;;5016068;28;20226;-71
2023/09/22 03:04:09;;;;;;;25.10;11.57;;;;;;;;;;5010774;28;20213;-71
2023/09/22 03:06:34;;;;;;;25.80;11.68;;;;;;;;;;5011354;28;20171;-71
2023/09/22 03:09:00;;;;;;;21.05;10.70;;;;;;;;;;5015154;28;20183;-72
2023/09/22 03:11:25;;;;;;;25.52;10.27;;;;;;;;;;5015092;28;20218;-71
2023/09/22 03:13:50;;;;;;;25.05;11.10;;;;;;;;;;5017885;28;20193;-71
2023/09/22 03:16:15;;;;;;;23.75;10.52;;;;;;;;;;5014611;28;20179;-72
2023/09/22 03:18:40;;;;;;;23.88;10.48;;;;;;;;;;5015635;28;20207;-72
2023/09/22 03:21:06;;;;;;;30.02;11.57;;;;;;;;;;5014155;28;20196;-72
2023/09/22 03:23:31;;;;;;;22.60;10.80;;;;;;;;;;5015945;28;20175;-72
2023/09/22 03:25:56;;;;;;;22.10;9.30;;;;;;;;;;5012504;28;20198;-72
2023/09/22 03:28:21;;;;;;;21.40;10.32;;;;;;;;;;5015189;28;20253;-71
2023/09/22 03:30:46;;;;;;;20.65;10.18;;;;;;;;;;5011663;28;20584;-70
2023/09/22 03:33:12;;;;;;;17.25;8.60;;;;;;;;;;5016176;28;20667;-71
2023/09/22 03:35:38;;;;;;;19.90;9.00;;;;;;;;;;5011641;28;20190;-71
2023/09/22 03:38:05;;;;;;;20.98;10.30;;;;;;;;;;5015356;28;20693;-71
2023/09/22 03:40:40;;;;;;;18.35;9.40;;;;;;;;;;5012541;28;20209;-72
2023/09/22 03:43:05;;;;;;;20.58;9.10;;;;;;;;;;5006324;28;20181;-72
2023/09/22 03:45:31;;;;;;;20.83;8.77;;;;;;;;;;5009746;28;20191;-72
2023/09/22 03:47:56;;;;;;;23.02;9.07;;;;;;;;;;5016673;28;20190;-72
2023/09/22 03:50:21;;;;;;;22.60;9.07;;;;;;;;;;5014300;28;20264;-72
2023/09/22 03:52:48;;;;;;;22.92;9.57;;;;;;;;;;5012524;28;20178;-72
2023/09/22 03:55:14;;;;;;;17.92;8.13;;;;;;;;;;5012564;28;20171;-72
2023/09/22 03:57:39;;;;;;;23.30;9.80;;;;;;;;;;5014591;28;20207;-70
2023/09/22 04:00:08;;;;;;;17.38;8.50;;;;;;;;;;5005168;28;20732;-72
2023/09/22 04:02:34;;;;;;;16.50;8.10;;;;;;;;;;5008892;28;20258;-72
2023/09/22 04:04:59;;;;;;;23.63;8.15;;;;;;;;;;5006435;28;20267;-72
2023/09/22 04:07:25;;;;;;;24.23;8.93;;;;;;;;;;5012563;28;20221;-72
2023/09/22 04:09:50;;;;;;;22.60;9.38;;;;;;;;;;5014056;28;20223;-71
2023/09/22 04:12:15;;;;;;;22.85;8.95;;;;;;;;;;5013790;28;20569;-71
2023/09/22 04:14:41;;;;;;;18.15;8.02;;;;;;;;;;5011391;28;20182;-70
2023/09/22 04:17:08;;;;;;;17.33;7.45;;;;;;;;;;5012321;28;20578;-71
2023/09/22 04:19:33;;;;;;;18.90;8.45;;;;;;;;;;5015221;28;20171;-71
2023/09/22 04:21:59;;;;;;;16.92;8.32;;;;;;;;;;5012548;28;20290;-71
2023/09/22 04:24:31;;;;;;;22.30;8.25;;;;;;;;;;5012051;28;20175;-71
2023/09/22 04:27:00;;;;;;;18.40;8.48;;;;;;;;;;5014103;28;20658;-71
2023/09/22 04:29:26;;;;;;;17.45;8.30;;;;;;;;;;5012989;28;20179;-71
2023/09/22 04:31:51;;;;;;;18.63;8.18;;;;;;;;;;5006713;28;20194;-71
2023/09/22 04:34:17;;;;;;;19.60;8.93;;;;;;;;;;5010446;28;20275;-71
2023/09/22 04:36:43;;;;;;;19.13;9.10;;;;;;;;;;5010448;28;20611;-71
2023/09/22 04:39:08;;;;;;;14.40;8.30;;;;;;;;;;5012015;28;20199;-71
2023/09/22 04:41:33;;;;;;;13.50;7.07;;;;;;;;;;5011585;28;20199;-71
2023/09/22 04:43:59;;;;;;;20.27;8.05;;;;;;;;;;5010796;28;20225;-71
2023/09/22 04:46:24;;;;;;;18.98;9.13;;;;;;;;;;5012746;28;20175;-72
2023/09/22 04:48:51;;;;;;;19.25;8.20;;;;;;;;;;5011524;28;20189;-72
2023/09/22 04:51:16;;;;;;;17.17;8.07;;;;;;;;;;5010697;28;20190;-73
2023/09/22 04:53:41;;;;;;;13.52;7.57;;;;;;;;;;5011586;28;20186;-71
2023/09/22 04:56:07;;;;;;;14.68;7.93;;;;;;;;;;5011355;28;20608;-71
2023/09/22 04:58:33;;;;;;;21.52;8.95;;;;;;;;;;5010837;28;20677;-71
2023/09/22 05:01:01;;;;;;;18.48;8.77;;;;;;;;;;5010321;28;20290;-71
2023/09/22 05:03:28;;;;;;;16.13;8.10;;;;;;;;;;5005964;28;20597;-72
2023/09/22 05:05:53;;;;;;;17.25;8.00;;;;;;;;;;5011677;28;20180;-71
2023/09/22 05:08:18;;;;;;;15.05;8.18;;;;;;;;;;5003620;28;20195;-71
2023/09/22 05:10:47;;;;;;;17.60;7.82;;;;;;;;;;5005131;28;20240;-71
2023/09/22 05:13:13;;;;;;;17.45;7.97;;;;;;;;;;5011972;28;20179;-71
2023/09/22 05:15:41;;;;;;;17.00;7.35;;;;;;;;;;5013882;28;20187;-71
2023/09/22 05:18:06;;;;;;;14.18;7.50;;;;;;;;;;5015518;28;20293;-71
2023/09/22 05:20:32;;;;;;;17.55;8.95;;;;;;;;;;5015336;28;20226;-71
2023/09/22 05:22:57;;;;;;;16.40;7.60;;;;;;;;;;5015449;28;20261;-72
2023/09/22 05:25:22;;;;;;;17.23;7.70;;;;;;;;;;5010204;28;20259;-72
2023/09/22 05:27:48;;;;;;;16.65;7.80;;;;;;;;;;5006784;28;20807;-72
2023/09/22 05:30:13;;;;;;;19.73;7.60;;;;;;;;;;5016381;28;20748;-72
2023/09/22 05:32:38;;;;;;;14.57;7.40;;;;;;;;;;5014979;28;20179;-72
2023/09/22 05:35:04;;;;;;;16.02;7.80;;;;;;;;;;5014705;28;20179;-71
2023/09/22 05:37:31;;;;;;;17.10;8.40;;;;;;;;;;5013237;28;20199;-71
2023/09/22 05:39:56;;;;;;;15.25;7.72;;;;;;;;;;5013705;28;20682;-72
2023/09/22 05:42:21;;;;;;;13.88;7.75;;;;;;;;;;5014010;28;20216;-70
2023/09/22 05:44:46;;;;;;;14.68;7.70;;;;;;;;;;5010835;28;20187;-72
2023/09/22 05:47:12;;;;;;;16.90;8.02;;;;;;;;;;5012715;28;20769;-72
2023/09/22 05:49:37;;;;;;;13.15;7.40;;;;;;;;;;5008550;28;20188;-72
2023/09/22 05:52:03;;;;;;;17.13;7.00;;;;;;;;;;5015793;28;20175;-72
2023/09/22 05:54:29;;;;;;;16.48;8.63;;;;;;;;;;5014966;28;20171;-72
2023/09/22 05:56:54;;;;;;;16.10;7.63;;;;;;;;;;5011932;28;20194;-73
2023/09/22 05:59:21;;;;;;;11.85;7.05;;;;;;;;;;5012021;28;20207;-73
2023/09/22 06:01:47;;;;;;;15.38;6.93;;;;;;;;;;5008059;28;20203;-73
2023/09/22 06:04:13;;;;;;;20.15;7.03;;;;;;;;;;5011070;28;20187;-73
2023/09/22 06:06:38;;;;;;;12.25;6.30;;;;;;;;;;5008264;28;20251;-72
2023/09/22 06:09:10;;;;;;;12.93;6.55;;;;;;;;;;5013994;28;20179;-72
2023/09/22 06:11:35;;;;;;;9.63;6.10;;;;;;;;;;5043013;22;20224;-65
2023/09/22 06:14:02;;;;;;;11.68;6.40;;;;;;;;;;5028483;28;20562;-67
2023/09/22 06:16:28;;;;;;;8.32;5.47;;;;;;;;;;5020469;28;20167;-66
2023/09/22 06:18:53;;;;;;;11.77;5.43;;;;;;;;;;5029674;28;20711;-67
2023/09/22 06:21:19;;;;;;;9.45;5.72;;;;;;;;;;5031705;28;20354;-67
2023/09/22 06:23:44;;;;;;;8.23;5.45;;;;;;;;;;5030910;28;20182;-67
2023/09/22 06:26:10;;;;;;;7.32;5.20;;;;;;;;;;5024367;28;20221;-66
2023/09/22 06:28:36;;;;;;;8.13;5.60;;;;;;;;;;5035849;28;20552;-66
2023/09/22 06:31:02;;;;;;;8.30;4.95;;;;;;;;;;5041291;28;20197;-67
2023/09/22 06:33:27;;;;;;;5.63;3.95;;;;;;;;;;5029469;28;20186;-67
2023/09/22 06:36:01;;;;;;;5.82;4.25;;;;;;;;;;5029892;28;20185;-67
2023/09/22 06:38:26;;;;;;;11.18;5.35;;;;;;;;;;5029610;28;20249;-66
2023/09/22 06:40:55;;;;;;;13.40;4.35;;;;;;;;;;5025676;28;20213;-66
2023/09/22 06:43:23;;;;;;;8.63;4.47;;;;;;;;;;5030641;28;20174;-66
2023/09/22 06:45:51;;;;;;;8.15;4.07;;;;;;;;;;5027813;28;20186;-67
2023/09/22 06:48:17;;;;;;;8.48;4.10;;;;;;;;;;5037418;28;20190;-66
2023/09/22 06:50:42;;;;;;;8.85;4.05;;;;;;;;;;5033785;28;20190;-66
2023/09/22 06:53:07;;;;;;;6.35;3.80;;;;;;;;;;5028878;28;20178;-66
2023/09/22 06:55:33;;;;;;;6.38;3.63;;;;;;;;;;5027613;28;20266;-66
2023/09/22 06:58:05;;;;;;;8.60;4.18;;;;;;;;;;5040811;28;20205;-66
2023/09/22 07:00:31;;;;;;;5.93;3.70;;;;;;;;;;5029288;28;20198;-67
2023/09/22 07:02:56;;;;;;;6.00;3.33;;;;;;;;;;5031368;28;20224;-67
2023/09/22 07:05:21;;;;;;;4.50;3.42;;;;;;;;;;5030829;28;20646;-66
2023/09/22 07:07:52;;;;;;;4.82;3.13;;;;;;;;;;5030904;28;20244;-66
2023/09/22 07:10:18;;;;;;;5.93;3.17;;;;;;;;;;5036353;28;20210;-67
2023/09/22 07:12:43;;;;;;;6.78;2.90;;;;;;;;;;5026992;28;20641;-67
2023/09/22 07:15:12;;;;;;;10.40;3.72;;;;;;;;;;5026859;28;20194;-67
2023/09/22 07:17:37;;;;;;;3.78;2.83;;;;;;;;;;5030555;28;20217;-66
2023/09/22 07:20:04;;;;;;;3.45;2.83;;;;;;;;;;5031060;28;20182;-65
2023/09/22 07:22:30;;;;;;;5.57;2.97;;;;;;;;;;5042424;28;20170;-66
2023/09/22 07:24:55;;;;;;;4.13;2.92;;;;;;;;;;5036088;28;20261;-65
2023/09/22 07:27:23;;;;;;;3.65;2.90;;;;;;;;;;5016463;28;20269;-66
2023/09/22 07:29:50;;;;;;;6.00;2.97;;;;;;;;;;5034045;28;20228;-66
2023/09/22 07:32:15;;;;;;;3.55;2.13;;;;;;;;;;5033203;28;20796;-66
2023/09/22 07:34:40;;;;;;;6.30;3.08;;;;;;;;;;5031051;28;20190;-66
2023/09/22 07:37:10;;;;;;;4.60;2.50;;;;;;;;;;5033790;28;20186;-65
2023/09/22 07:39:35;;;;;;;3.38;2.38;;;;;;;;;;5024880;28;20652;-66
2023/09/22 07:42:02;;;;;;;4.95;2.30;;;;;;;;;;5032406;28;20202;-66
2023/09/22 07:44:28;;;;;;;2.58;2.38;;;;;;;;;;5027243;28;20273;-67
2023/09/22 07:46:56;;;;;;;2.05;1.85;;;;;;;;;;5026960;28;20683;-66
2023/09/22 07:49:21;;;;;;;2.30;2.08;;;;;;;;;;5029400;28;20252;-66
2023/09/22 07:51:46;;;;;;;7.40;2.03;;;;;;;;;;5027432;28;20199;-67
2023/09/22 07:54:12;;;;;;;3.35;1.73;;;;;;;;;;5026121;28;20238;-67
2023/09/22 07:56:37;;;;;;;1.75;1.52;;;;;;;;;;5022396;28;20268;-65
2023/09/22 07:59:03;;;;;;;2.47;1.77;;;;;;;;;;5023159;28;20202;-66
2023/09/22 08:01:29;;;;;;;1.58;1.40;;;;;;;;;;5028647;28;20206;-66
2023/09/22 08:03:54;;;;;;;2.35;1.85;;;;;;;;;;5029011;28;20174;-65
2023/09/22 08:06:19;;;;;;;3.60;2.03;;;;;;;;;;5030094;28;20323;-66
2023/09/22 08:08:45;;;;;;;2.70;1.80;;;;;;;;;;5029955;28;20170;-66
2023/09/22 08:11:10;;;;;;;2.70;1.80;;;;;;;;;;5028192;28;20209;-65
2023/09/22 08:13:35;;;;;;;3.63;2.05;;;;;;;;;;5032287;28;20178;-65
2023/09/22 08:16:00;;;;;;;3.22;1.90;;;;;;;;;;5023232;28;20175;-65
2023/09/22 08:18:26;;;;;;;2.13;1.52;;;;;;;;;;5024715;28;20620;-66
2023/09/22 08:20:51;;;;;;;5.80;2.20;;;;;;;;;;5029953;28;20276;-65
2023/09/22 08:23:16;;;;;;;5.00;2.40;;;;;;;;;;5026290;28;20568;-65
2023/09/22 08:25:43;;;;;;;2.72;1.90;;;;;;;;;;5025536;28;20174;-65
2023/09/22 08:28:12;;;;;;;3.05;1.95;;;;;;;;;;5027406;28;20721;-66
2023/09/22 08:30:38;;;;;;;2.00;1.80;;;;;;;;;;5036978;28;20206;-65
2023/09/22 08:33:03;;;;;;;4.72;2.45;;;;;;;;;;5036774;28;20204;-66
2023/09/22 08:35:28;;;;;;;3.97;1.98;;;;;;;;;;5029654;28;20181;-65
2023/09/22 08:37:54;;;;;;;2.42;2.22;;;;;;;;;;5036411;28;20205;-66
2023/09/22 08:40:19;;;;;;;2.63;2.30;;;;;;;;;;5031060;28;20202;-65
2023/09/22 08:42:45;;;;;;;5.38;2.50;;;;;;;;;;5024282;28;20284;-66
2023/09/22 08:45:11;;;;;;;2.35;2.15;;;;;;;;;;5030347;28;20265;-66
2023/09/22 08:47:40;;;;;;;2.50;2.13;;;;;;;;;;5030517;28;20598;-66
2023/09/22 08:50:07;;;;;;;3.20;2.13;;;;;;;;;;5033947;28;20237;-66
2023/09/22 08:52:33;;;;;;;2.50;1.70;;;;;;;;;;5032959;28;20575;-64
2023/09/22 08:55:00;;;;;;;2.63;2.05;;;;;;;;;;5035156;28;20185;-66
2023/09/22 08:57:27;;;;;;;2.30;2.10;;;;;;;;;;5033340;28;20240;-65
2023/09/22 08:59:53;;;;;;;2.58;2.00;;;;;;;;;;5035054;28;20166;-66
2023/09/22 09:02:19;;;;;;;4.18;2.70;;;;;;;;;;5034730;28;20712;-66
2023/09/22 09:04:44;;;;;;;2.67;2.47;;;;;;;;;;5034089;28;20317;-66
2023/09/22 09:07:11;;;;;;;4.15;3.13;;;;;;;;;;5033989;28;20649;-67
2023/09/22 09:09:41;;;;;;;2.85;2.55;;;;;;;;;;5035015;28;20406;-65
2023/09/22 09:12:08;;;;;;;2.13;1.92;;;;;;;;;;5034630;28;20205;-66
2023/09/22 09:14:34;;;;;;;2.80;2.35;;;;;;;;;;5032369;28;20650;-65
2023/09/22 09:16:59;;;;;;;3.22;2.55;;;;;;;;;;5034744;28;20178;-67
2023/09/22 09:19:26;;;;;;;3.15;2.22;;;;;;;;;;5034330;28;20317;-65
2023/09/22 09:22:09;;;;;;;3.20;2.25;;;;;;;;;;5034669;28;20649;-66
2023/09/22 09:24:35;;;;;;;3.25;2.40;;;;;;;;;;5034204;28;20205;-66
2023/09/22 09:27:13;;;;;;;2.47;2.28;;;;;;;;;;5037913;28;20205;-66
2023/09/22 09:29:38;;;;;;;2.60;2.40;;;;;;;;;;5034424;28;20709;-65
2023/09/22 09:32:03;;;;;;;2.95;2.00;;;;;;;;;;5034143;28;20202;-65
2023/09/22 09:34:37;;;;;;;2.45;2.15;;;;;;;;;;5033378;28;20178;-66
2023/09/22 09:37:14;;;;;;;2.00;1.90;;;;;;;;;;5034443;28;20182;-65
2023/09/22 09:39:52;;;;;;;3.45;3.15;;;;;;;;;;5032832;28;20217;-65
2023/09/22 09:42:19;;;;;;;2.58;2.38;;;;;;;;;;5035267;28;20198;-65
2023/09/22 09:44:47;;;;;;;3.08;2.78;;;;;;;;;;5034199;28;20660;-66
2023/09/22 09:47:16;;;;;;;3.13;2.83;;;;;;;;;;5037546;28;20537;-66
2023/09/22 09:49:43;;;;;;;3.97;2.33;;;;;;;;;;5033805;28;20174;-66
2023/09/22 09:52:09;;;;;;;3.35;2.72;;;;;;;;;;5035644;28;20760;-66
2023/09/22 09:54:37;;;;;;;3.58;2.33;;;;;;;;;;5030189;28;20180;-65
2023/09/22 09:57:02;;;;;;;3.35;3.00;;;;;;;;;;5033170;28;20174;-66
2023/09/22 09:59:27;;;;;;;3.42;2.60;;;;;;;;;;5033546;28;20212;-66
2023/09/22 10:01:54;;;;;;;2.50;2.33;;;;;;;;;;5034118;28;20688;-66
2023/09/22 10:04:20;;;;;;;4.50;2.95;;;;;;;;;;5032389;28;20182;-65
2023/09/22 10:06:47;;;;;;;2.80;2.13;;;;;;;;;;5033890;28;20179;-66
2023/09/22 10:09:12;;;;;;;2.75;2.55;;;;;;;;;;5034026;28;20198;-66
2023/09/22 10:11:37;;;;;;;2.85;2.35;;;;;;;;;;5033732;28;20262;-65
2023/09/22 10:14:02;;;;;;;7.93;2.83;;;;;;;;;;5032047;28;20182;-66
2023/09/22 10:16:31;;;;;;;3.58;2.65;;;;;;;;;;5033684;28;20182;-66
2023/09/22 10:18:59;;;;;;;3.85;2.17;;;;;;;;;;5033432;28;20252;-65
2023/09/22 10:21:30;;;;;;;3.13;2.22;;;;;;;;;;5033604;28;20551;-65
2023/09/22 10:24:13;;;;;;;3.42;2.88;;;;;;;;;;5029170;28;20254;-65
2023/09/22 10:27:00;;;;;;;2.50;2.30;;;;;;;;;;5028750;28;20170;-65
2023/09/22 10:29:35;;;;;;;3.35;2.53;;;;;;;;;;5045007;28;20185;-66
2023/09/22 10:32:18;;;;;;;2.22;2.13;;;;;;;;;;5032104;28;20235;-66
2023/09/22 10:34:43;;;;;;;3.22;2.33;;;;;;;;;;5033211;28;20189;-66
2023/09/22 10:37:09;;;;;;;3.80;2.35;;;;;;;;;;5033292;28;20170;-67
2023/09/22 10:39:57;;;;;;;7.28;2.47;;;;;;;;;;5033223;28;20638;-65
2023/09/22 10:42:23;;;;;;;3.95;2.50;;;;;;;;;;5019992;28;20629;-65
2023/09/22 10:45:02;;;;;;;2.70;2.20;;;;;;;;;;5024720;28;20170;-65
2023/09/22 10:47:41;;;;;;;2.22;2.00;;;;;;;;;;5029265;28;20700;-65
2023/09/22 10:50:10;;;;;;;4.32;2.20;;;;;;;;;;5028265;28;20261;-66
2023/09/22 10:52:36;;;;;;;2.42;2.22;;;;;;;;;;5031507;28;20201;-66
2023/09/22 10:55:02;;;;;;;2.17;1.98;;;;;;;;;;5027026;28;20178;-65
2023/09/22 10:57:27;;;;;;;3.38;1.95;;;;;;;;;;5031708;28;20723;-65
2023/09/22 10:59:53;;;;;;;2.78;2.13;;;;;;;;;;5031789;28;20178;-66
2023/09/22 11:02:22;;;;;;;2.45;1.80;;;;;;;;;;5030696;28;20463;-65
2023/09/22 11:04:48;;;;;;;1.88;1.73;;;;;;;;;;5030659;28;20185;-66
2023/09/22 11:07:29;;;;;;;1.52;1.30;;;;;;;;;;5031796;28;20636;-66
2023/09/22 11:09:54;;;;;;;1.30;1.20;;;;;;;;;;5027890;28;20219;-65
2023/09/22 11:12:20;;;;;;;3.03;1.88;;;;;;;;;;5030372;28;20730;-66
2023/09/22 11:14:46;;;;;;;3.00;1.20;;;;;;;;;;5031474;28;20175;-65
2023/09/22 11:17:11;;;;;;;3.78;1.52;;;;;;;;;;5031625;28;20178;-66
2023/09/22 11:19:48;;;;;;;2.95;1.33;;;;;;;;;;5030309;28;20634;-66
2023/09/22 11:22:13;;;;;;;2.60;1.90;;;;;;;;;;5030865;28;20170;-65
2023/09/22 11:24:39;;;;;;;1.65;1.40;;;;;;;;;;5031171;28;20177;-65
2023/09/22 11:27:05;;;;;;;6.95;1.30;;;;;;;;;;5031146;28;20174;-65
2023/09/22 11:29:31;;;;;;;2.35;1.33;;;;;;;;;;5032107;28;20473;-66
2023/09/22 11:31:57;;;;;;;1.40;1.02;;;;;;;;;;5030866;28;20202;-65
2023/09/22 11:34:23;;;;;;;2.50;0.90;;;;;;;;;;5030464;28;20177;-65
2023/09/22 11:36:51;;;;;;;2.20;1.15;;;;;;;;;;5029568;28;20214;-66
2023/09/22 11:39:26;;;;;;;1.08;0.90;;;;;;;;;;5030871;28;20741;-66
2023/09/22 11:41:51;;;;;;;1.95;0.95;;;;;;;;;;5032073;28;20673;-66
2023/09/22 11:44:17;;;;;;;1.08;0.93;;;;;;;;;;5032036;28;20181;-65
2023/09/22 11:46:45;;;;;;;1.95;1.20;;;;;;;;;;5029991;28;20641;-66
2023/09/22 11:49:12;;;;;;;1.13;0.70;;;;;;;;;;5031926;28;20598;-65
2023/09/22 11:51:54;;;;;;;1.85;0.77;;;;;;;;;;5031812;28;20464;-66
2023/09/22 11:54:20;;;;;;;1.33;0.90;;;;;;;;;;5036189;28;20593;-66
2023/09/22 11:56:46;;;;;;;1.65;0.85;;;;;;;;;;5030080;28;20274;-66
2023/09/22 11:59:14;;;;;;;1.70;0.80;;;;;;;;;;5031769;28;20294;-66
2023/09/22 12:01:39;;;;;;;1.30;0.55;;;;;;;;;;5031386;28;20722;-65
2023/09/22 12:04:05;;;;;;;2.05;0.90;;;;;;;;;;5037371;28;20174;-65
2023/09/22 12:06:30;;;;;;;1.42;0.80;;;;;;;;;;5033501;28;20220;-65
2023/09/22 12:08:57;;;;;;;1.80;0.60;;;;;;;;;;5034964;28;20170;-66
2023/09/22 12:11:23;;;;;;;2.83;0.70;;;;;;;;;;5048758;23;20257;-72
2023/09/22 12:13:48;;;;;;;1.08;0.70;;;;;;;;;;5031457;28;20182;-71
2023/09/22 12:16:13;;;;;;;4.50;1.35;;;;;;;;;;5032067;28;20166;-72
2023/09/22 12:18:38;;;;;;;1.35;0.82;;;;;;;;;;5019409;28;20201;-72
2023/09/22 12:21:04;;;;;;;0.57;0.50;;;;;;;;;;5032320;28;20205;-72
2023/09/22 12:23:29;;;;;;;2.72;0.80;;;;;;;;;;5029330;28;20274;-72
2023/09/22 12:25:54;;;;;;;1.90;1.25;;;;;;;;;;5030641;28;20227;-71
2023/09/22 12:28:19;;;;;;;2.97;1.38;;;;;;;;;;5031639;28;20227;-71
2023/09/22 12:30:45;;;;;;;1.85;0.80;;;;;;;;;;5031835;28;20225;-71
2023/09/22 12:33:10;;;;;;;2.10;0.70;;;;;;;;;;5031114;28;20376;-71
2023/09/22 12:35:37;;;;;;;3.00;0.57;;;;;;;;;;5028356;28;20171;-71
2023/09/22 12:38:03;;;;;;;4.30;1.13;;;;;;;;;;5026466;28;20200;-71
2023/09/22 12:40:28;;;;;;;1.52;0.73;;;;;;;;;;5031702;28;20182;-71
2023/09/22 12:42:54;;;;;;;2.83;0.82;;;;;;;;;;5031629;28;20167;-71
2023/09/22 12:45:20;;;;;;;1.10;0.80;;;;;;;;;;5026612;28;20516;-71
2023/09/22 12:47:45;;;;;;;0.57;0.57;;;;;;;;;;5031838;28;20576;-72
2023/09/22 12:50:10;;;;;;;1.15;0.65;;;;;;;;;;5025647;28;20273;-72
2023/09/22 12:52:37;;;;;;;1.33;0.50;;;;;;;;;;5031930;28;20301;-72
2023/09/22 12:55:03;;;;;;;1.38;0.63;;;;;;;;;;5024977;28;20649;-72
2023/09/22 12:57:28;;;;;;;1.25;0.52;;;;;;;;;;5030209;28;20688;-72
2023/09/22 12:59:53;;;;;;;1.77;0.60;;;;;;;;;;5032313;28;20180;-72
2023/09/22 13:02:19;;;;;;;1.55;0.63;;;;;;;;;;5032336;28;20960;-72
2023/09/22 13:04:45;;;;;;;4.88;0.63;;;;;;;;;;5031301;28;20638;-72
2023/09/22 13:07:10;;;;;;;1.90;0.50;;;;;;;;;;5031978;28;20198;-71
2023/09/22 13:09:36;;;;;;;2.30;1.20;;;;;;;;;;5032073;28;20197;-71
2023/09/22 13:12:02;;;;;;;1.70;0.70;;;;;;;;;;5028836;28;20209;-71
2023/09/22 13:14:27;;;;;;;1.20;0.60;;;;;;;;;;5024696;28;20189;-71
2023/09/22 13:16:53;;;;;;;1.30;0.80;;;;;;;;;;5026791;28;20182;-71
2023/09/22 13:19:18;;;;;;;4.15;0.90;;;;;;;;;;5033625;28;20557;-71
2023/09/22 13:21:43;;;;;;;2.30;0.60;;;;;;;;;;5031578;28;20194;-71
2023/09/22 13:24:08;;;;;;;1.27;0.43;;;;;;;;;;5031303;28;20186;-71
2023/09/22 13:26:33;;;;;;;0.95;0.57;;;;;;;;;;5031921;28;20182;-70
2023/09/22 13:28:59;;;;;;;1.35;0.57;;;;;;;;;;5031311;28;20178;-71
2023/09/22 13:31:25;;;;;;;1.73;0.68;;;;;;;;;;5031376;28;20229;-71
2023/09/22 13:33:50;;;;;;;2.08;0.88;;;;;;;;;;5025075;28;20244;-71
2023/09/22 13:36:19;;;;;;;2.00;1.27;;;;;;;;;;5026370;28;20178;-71
2023/09/22 13:38:45;;;;;;;3.22;1.05;;;;;;;;;;5026004;28;20202;-70
2023/09/22 13:41:11;;;;;;;2.90;0.98;;;;;;;;;;5035389;28;20252;-71
2023/09/22 13:43:36;;;;;;;6.50;1.27;;;;;;;;;;5034354;28;20190;-71
2023/09/22 13:46:01;;;;;;;3.00;1.23;;;;;;;;;;5035271;28;20189;-71
2023/09/22 13:48:26;;;;;;;1.65;0.60;;;;;;;;;;5034103;28;20579;-71
2023/09/22 13:50:51;;;;;;;3.15;0.90;;;;;;;;;;5025422;28;20206;-71
2023/09/22 13:53:17;;;;;;;3.28;1.02;;;;;;;;;;5033479;28;20182;-71
2023/09/22 13:55:43;;;;;;;3.25;0.85;;;;;;;;;;5047390;28;20175;-71
2023/09/22 13:58:09;;;;;;;2.10;0.80;;;;;;;;;;5033210;28;20194;-71
2023/09/22 14:00:34;;;;;;;0.80;0.50;;;;;;;;;;5033879;28;20545;-72
2023/09/22 14:03:00;;;;;;;4.70;1.10;;;;;;;;;;5033647;28;20173;-72
2023/09/22 14:05:27;;;;;;;1.23;0.70;;;;;;;;;;5023257;28;20721;-72
2023/09/22 14:07:52;;;;;;;2.13;0.77;;;;;;;;;;5025469;28;20214;-72
2023/09/22 14:10:18;;;;;;;1.60;0.50;;;;;;;;;;5032188;28;20206;-72
2023/09/22 14:12:43;;;;;;;2.88;0.98;;;;;;;;;;5033960;28;20198;-72
2023/09/22 14:15:09;;;;;;;1.25;0.60;;;;;;;;;;5023489;28;20174;-72
2023/09/22 14:17:34;;;;;;;2.75;1.30;;;;;;;;;;5023961;28;20175;-72
2023/09/22 14:19:59;;;;;;;2.00;0.90;;;;;;;;;;5031940;28;20178;-70
2023/09/22 14:22:25;;;;;;;2.15;1.00;;;;;;;;;;5034658;28;20200;-71
2023/09/22 14:24:52;;;;;;;2.10;1.38;;;;;;;;;;5033941;28;20181;-72
2023/09/22 14:27:17;;;;;;;1.73;0.80;;;;;;;;;;5037387;28;20253;-71
2023/09/22 14:29:42;;;;;;;2.35;0.82;;;;;;;;;;5019348;28;21571;-72
2023/09/22 14:32:07;;;;;;;1.33;0.90;;;;;;;;;;5034728;28;20191;-71